createdAt,value
2022-07-28T00:01:49.132Z,43.50
2022-07-28T00:04:17.972Z,43.40
2022-07-28T00:06:46.696Z,43.60
2022-07-28T00:09:15.719Z,43.60
2022-07-28T00:11:54.167Z,43.70
2022-07-28T00:14:23.891Z,43.70
2022-07-28T00:16:52.843Z,43.80
2022-07-28T00:19:21.428Z,43.80
2022-07-28T00:21:50.088Z,43.80
2022-07-28T00:24:18.780Z,43.90
2022-07-28T00:26:48.769Z,43.80
2022-07-28T00:29:17.570Z,43.90
2022-07-28T00:31:46.345Z,43.90
2022-07-28T00:34:15.449Z,44.00
2022-07-28T00:36:44.281Z,44.10
2022-07-28T00:39:13.525Z,44.10
2022-07-28T00:41:42.792Z,44.10
2022-07-28T00:44:13.167Z,44.00
2022-07-28T00:46:42.088Z,44.00
2022-07-28T00:49:10.829Z,44.00
2022-07-28T00:51:41.120Z,44.00
2022-07-28T00:54:10.320Z,44.10
2022-07-28T00:56:39.855Z,44.10
2022-07-28T00:59:08.421Z,44.00
2022-07-28T01:01:39.286Z,44.00
2022-07-28T01:04:09.190Z,44.10
2022-07-28T01:07:04.741Z,44.10
2022-07-28T01:09:48.326Z,44.10
2022-07-28T01:12:31.606Z,44.20
2022-07-28T01:15:11.237Z,44.20
2022-07-28T01:17:50.975Z,44.30
2022-07-28T01:20:27.238Z,44.40
2022-07-28T01:23:11.744Z,44.40
2022-07-28T01:25:49.784Z,44.50
2022-07-28T01:28:31.160Z,44.50
2022-07-28T01:31:08.200Z,44.50
2022-07-28T01:33:43.155Z,44.50
2022-07-28T01:36:17.014Z,44.50
2022-07-28T01:38:48.896Z,44.70
2022-07-28T01:41:21.698Z,44.70
2022-07-28T01:44:02.337Z,44.80
2022-07-28T01:46:34.170Z,44.80
2022-07-28T01:49:04.197Z,44.80
2022-07-28T01:51:34.823Z,44.80
2022-07-28T01:54:04.909Z,44.90
2022-07-28T01:56:35.780Z,44.90
2022-07-28T01:59:09.832Z,44.90
2022-07-28T02:01:46.013Z,45.00
2022-07-28T02:04:17.471Z,45.00
2022-07-28T02:06:49.555Z,45.10
2022-07-28T02:09:21.271Z,45.30
2022-07-28T02:11:54.430Z,45.20
2022-07-28T02:14:26.334Z,45.30
2022-07-28T02:17:00.891Z,45.20
2022-07-28T02:19:31.272Z,45.30
2022-07-28T02:22:00.161Z,45.30
2022-07-28T02:24:30.827Z,45.20
2022-07-28T02:27:03.049Z,45.20
2022-07-28T02:29:50.709Z,45.20
2022-07-28T02:32:28.743Z,45.30
2022-07-28T02:35:06.252Z,45.30
2022-07-28T02:37:41.476Z,45.30
2022-07-28T02:40:16.175Z,45.30
2022-07-28T02:42:51.397Z,45.30
2022-07-28T02:45:25.576Z,45.40
2022-07-28T02:48:02.649Z,45.30
2022-07-28T02:50:31.660Z,45.30
2022-07-28T02:53:14.904Z,45.40
2022-07-28T02:55:49.321Z,45.50
2022-07-28T02:58:21.015Z,45.40
2022-07-28T03:00:51.586Z,45.50
2022-07-28T03:03:22.942Z,45.50
2022-07-28T03:05:52.130Z,45.60
2022-07-28T03:08:21.196Z,45.60
2022-07-28T03:10:50.120Z,45.70
2022-07-28T03:13:20.294Z,45.70
2022-07-28T03:15:49.396Z,45.80
2022-07-28T03:18:18.056Z,45.90
2022-07-28T03:20:48.297Z,45.80
2022-07-28T03:23:18.090Z,45.80
2022-07-28T03:25:52.126Z,45.90
2022-07-28T03:28:22.992Z,46.00
2022-07-28T03:30:58.901Z,46.00
2022-07-28T03:33:28.958Z,46.00
2022-07-28T03:36:02.500Z,46.00
2022-07-28T03:38:39.096Z,46.00
2022-07-28T03:41:11.085Z,46.10
2022-07-28T03:43:43.676Z,46.20
2022-07-28T03:46:13.744Z,46.10
2022-07-28T03:48:43.432Z,46.20
2022-07-28T03:51:19.737Z,46.30
2022-07-28T03:53:50.633Z,46.40
2022-07-28T03:56:22.482Z,46.30
2022-07-28T03:58:55.213Z,46.40
2022-07-28T04:01:25.159Z,46.40
2022-07-28T04:04:01.982Z,46.40
2022-07-28T04:06:34.833Z,46.60
2022-07-28T04:09:03.667Z,46.60
2022-07-28T04:11:34.468Z,46.60
2022-07-28T04:14:04.790Z,46.60
2022-07-28T04:16:37.176Z,46.60
2022-07-28T04:19:06.268Z,46.70
2022-07-28T04:21:37.056Z,46.70
2022-07-28T04:24:08.691Z,46.80
2022-07-28T04:26:37.936Z,46.80
2022-07-28T04:29:08.543Z,46.80
2022-07-28T04:31:40.533Z,46.80
2022-07-28T04:34:10.090Z,46.90
2022-07-28T04:36:43.593Z,47.00
2022-07-28T04:39:12.452Z,47.10
2022-07-28T04:41:42.692Z,47.10
2022-07-28T04:44:15.906Z,47.10
2022-07-28T04:46:47.945Z,47.10
2022-07-28T04:49:18.585Z,47.10
2022-07-28T04:51:51.261Z,47.20
2022-07-28T04:54:26.578Z,47.20
2022-07-28T04:56:56.491Z,47.30
2022-07-28T04:59:28.413Z,47.40
2022-07-28T05:02:03.042Z,47.40
2022-07-28T05:04:33.409Z,47.40
2022-07-28T05:07:12.722Z,47.50
2022-07-28T05:09:45.855Z,47.50
2022-07-28T05:12:15.259Z,47.50
2022-07-28T05:14:44.871Z,47.50
2022-07-28T05:17:15.639Z,47.60
2022-07-28T05:19:46.650Z,47.60
2022-07-28T05:22:17.587Z,47.60
2022-07-28T05:24:47.850Z,47.70
2022-07-28T05:27:16.760Z,47.70
2022-07-28T05:29:47.323Z,47.80
2022-07-28T05:32:18.151Z,47.80
2022-07-28T05:34:46.964Z,47.80
2022-07-28T05:37:17.013Z,47.90
2022-07-28T05:39:49.630Z,48.00
2022-07-28T05:42:18.417Z,48.00
2022-07-28T05:44:48.080Z,48.10
2022-07-28T05:47:16.865Z,48.10
2022-07-28T05:49:45.614Z,48.20
2022-07-28T05:52:14.659Z,48.30
2022-07-28T05:54:48.200Z,48.30
2022-07-28T05:57:17.359Z,48.50
2022-07-28T05:59:46.218Z,48.50
2022-07-28T06:02:15.007Z,48.50
2022-07-28T06:04:43.855Z,48.50
2022-07-28T06:07:13.103Z,48.50
2022-07-28T06:09:45.199Z,48.50
2022-07-28T06:12:15.677Z,48.70
2022-07-28T06:14:44.225Z,48.70
2022-07-28T06:17:14.917Z,48.70
2022-07-28T06:19:43.917Z,48.60
2022-07-28T06:22:15.363Z,48.60
2022-07-28T06:24:45.162Z,48.80
2022-07-28T06:27:15.718Z,48.80
2022-07-28T06:29:44.736Z,48.80
2022-07-28T06:32:14.023Z,48.80
2022-07-28T06:34:42.666Z,48.80
2022-07-28T06:37:11.430Z,48.70
2022-07-28T06:39:40.299Z,48.90
2022-07-28T06:42:09.023Z,48.90
2022-07-28T06:44:57.884Z,48.90
2022-07-28T06:47:28.137Z,49.00
2022-07-28T06:49:56.889Z,48.80
2022-07-28T06:52:28.356Z,48.70
2022-07-28T06:54:58.241Z,48.80
2022-07-28T06:57:33.746Z,48.80
2022-07-28T07:00:06.774Z,48.90
2022-07-28T07:02:40.157Z,48.80
2022-07-28T07:05:32.256Z,48.80
2022-07-28T07:08:01.594Z,48.90
2022-07-28T07:10:30.671Z,48.90
2022-07-28T07:12:59.417Z,49.00
2022-07-28T07:15:29.856Z,49.00
2022-07-28T07:17:59.986Z,49.00
2022-07-28T07:20:29.081Z,49.10
2022-07-28T07:22:57.752Z,49.00
2022-07-28T07:25:26.325Z,49.00
2022-07-28T07:27:54.933Z,48.90
2022-07-28T07:30:23.601Z,48.80
2022-07-28T07:32:54.730Z,48.90
2022-07-28T07:35:23.447Z,49.00
2022-07-28T07:37:53.343Z,49.00
2022-07-28T07:40:23.970Z,49.00
2022-07-28T07:42:53.605Z,48.90
2022-07-28T07:45:23.195Z,48.80
2022-07-28T07:47:52.226Z,48.80
2022-07-28T07:50:23.101Z,48.80
2022-07-28T07:52:51.918Z,48.80
2022-07-28T07:55:26.914Z,48.90
2022-07-28T07:58:05.202Z,48.80
2022-07-28T08:00:34.316Z,48.90
2022-07-28T08:03:04.880Z,48.80
2022-07-28T08:05:44.087Z,48.70
2022-07-28T08:08:14.309Z,48.60
2022-07-28T08:10:44.603Z,48.60
2022-07-28T08:13:20.556Z,48.50
2022-07-28T08:15:53.816Z,48.30
2022-07-28T08:18:24.128Z,48.30
2022-07-28T08:20:54.299Z,48.30
2022-07-28T08:23:26.293Z,48.50
2022-07-28T08:25:56.893Z,48.50
2022-07-28T08:28:25.668Z,48.50
2022-07-28T08:30:54.460Z,48.40
2022-07-28T08:33:23.569Z,48.50
2022-07-28T08:35:53.828Z,48.40
2022-07-28T08:38:22.431Z,48.40
2022-07-28T08:40:52.578Z,48.50
2022-07-28T08:44:05.010Z,48.40
2022-07-28T08:47:16.459Z,48.10
2022-07-28T08:55:10.812Z,47.80
2022-07-28T08:58:19.752Z,47.70
2022-07-28T09:01:38.903Z,47.60
2022-07-28T09:04:22.759Z,47.60
2022-07-28T09:11:19.514Z,47.50
2022-07-28T09:14:24.913Z,47.40
2022-07-28T09:16:54.378Z,47.50
2022-07-28T09:19:22.949Z,47.40
2022-07-28T09:21:52.161Z,47.20
2022-07-28T09:24:39.554Z,47.20
2022-07-28T09:27:10.441Z,47.10
2022-07-28T09:29:44.021Z,47.30
2022-07-28T09:36:06.739Z,47.40
2022-07-28T09:39:18.578Z,46.80
2022-07-28T09:43:32.010Z,46.60
2022-07-28T09:46:18.702Z,46.30
2022-07-28T09:48:59.296Z,46.50
2022-07-28T09:51:31.386Z,46.20
2022-07-28T09:54:12.923Z,46.40
2022-07-28T09:56:44.358Z,45.90
2022-07-28T09:59:16.199Z,46.10
2022-07-28T10:01:59.938Z,46.10
2022-07-28T10:04:34.964Z,45.80
2022-07-28T10:07:10.016Z,46.10
2022-07-28T10:09:40.234Z,45.70
2022-07-28T10:12:20.943Z,45.70
2022-07-28T10:14:52.145Z,45.30
2022-07-28T10:17:29.167Z,44.80
2022-07-28T10:20:01.625Z,44.80
2022-07-28T10:22:34.122Z,45.00
2022-07-28T10:25:07.829Z,45.00
2022-07-28T10:27:38.922Z,44.70
2022-07-28T10:30:09.429Z,45.00
2022-07-28T10:32:43.557Z,44.80
2022-07-28T10:35:18.926Z,44.70
2022-07-28T10:37:53.292Z,44.80
2022-07-28T10:40:30.100Z,44.80
2022-07-28T10:43:02.148Z,44.40
2022-07-28T10:45:55.083Z,45.10
2022-07-28T10:48:24.041Z,44.40
2022-07-28T10:50:54.066Z,44.40
2022-07-28T10:53:37.349Z,44.40
2022-07-28T10:56:16.655Z,44.00
2022-07-28T10:58:59.114Z,44.20
2022-07-28T11:01:49.075Z,44.10
2022-07-28T11:05:02.072Z,43.90
2022-07-28T11:07:41.893Z,43.70
2022-07-28T11:10:32.754Z,43.00
2022-07-28T11:13:04.491Z,43.30
2022-07-28T11:15:44.354Z,43.70
2022-07-28T11:19:36.668Z,44.00
2022-07-28T11:22:37.349Z,43.70
2022-07-28T11:25:29.967Z,43.10
2022-07-28T11:28:19.318Z,43.60
2022-07-28T11:31:01.589Z,43.40
2022-07-28T11:34:09.255Z,43.20
2022-07-28T11:37:04.139Z,42.80
2022-07-28T11:39:43.887Z,42.90
2022-07-28T11:42:31.134Z,43.10
2022-07-28T11:45:37.774Z,43.00
2022-07-28T11:48:19.557Z,42.90
2022-07-28T11:51:16.523Z,42.60
2022-07-28T11:53:53.606Z,42.70
2022-07-28T11:56:38.609Z,42.90
2022-07-28T11:59:18.616Z,42.40
2022-07-28T12:01:58.879Z,42.60
2022-07-28T12:05:13.631Z,42.30
2022-07-28T12:07:49.985Z,41.90
2022-07-28T12:10:56.075Z,42.30
2022-07-28T12:13:37.966Z,42.30
2022-07-28T12:16:11.777Z,42.50
2022-07-28T12:18:53.792Z,42.60
2022-07-28T12:21:47.534Z,42.50
2022-07-28T12:24:46.001Z,42.10
2022-07-28T12:27:37.736Z,41.70
2022-07-28T12:30:30.672Z,41.80
2022-07-28T12:33:02.559Z,41.80
2022-07-28T12:35:31.489Z,42.00
2022-07-28T12:38:00.795Z,42.00
2022-07-28T12:40:37.853Z,42.10
2022-07-28T12:43:07.709Z,42.00
2022-07-28T12:45:54.062Z,42.00
2022-07-28T12:48:35.791Z,41.50
2022-07-28T12:51:37.731Z,41.70
2022-07-28T12:54:14.717Z,41.50
2022-07-28T13:48:27.266Z,40.80
2022-07-28T13:50:58.856Z,40.10
2022-07-28T13:53:42.482Z,40.10
2022-07-28T13:56:13.883Z,40.40
2022-07-28T13:58:47.509Z,40.10
2022-07-28T14:01:23.831Z,40.10
2022-07-28T14:04:13.138Z,40.10
2022-07-28T14:06:52.519Z,40.00
2022-07-28T14:09:26.462Z,40.10
2022-07-28T14:11:59.967Z,40.10
2022-07-28T14:14:37.541Z,40.20
2022-07-28T14:17:42.791Z,40.20
2022-07-28T14:20:26.741Z,40.30
2022-07-28T14:23:10.808Z,40.30
2022-07-28T14:25:49.641Z,40.10
2022-07-28T14:28:27.074Z,39.90
2022-07-28T14:31:00.249Z,39.50
2022-07-28T14:33:40.421Z,39.70
2022-07-28T14:36:14.461Z,39.60
2022-07-28T14:39:00.859Z,39.70
2022-07-28T14:41:35.444Z,39.40
2022-07-28T14:44:05.381Z,39.40
2022-07-28T14:46:38.566Z,39.50
2022-07-28T14:53:59.040Z,38.80
2022-07-28T14:56:28.626Z,38.80
2022-07-28T14:58:57.517Z,38.70
2022-07-28T15:01:27.851Z,38.70
2022-07-28T15:04:04.888Z,38.70
2022-07-28T15:06:35.886Z,38.80
2022-07-28T15:09:09.483Z,39.20
2022-07-28T15:11:39.808Z,39.20
2022-07-28T15:14:09.137Z,39.30
2022-07-28T15:16:38.567Z,39.30
2022-07-28T15:19:12.628Z,39.40
2022-07-28T15:21:47.779Z,40.30
2022-07-28T15:24:19.969Z,40.30
2022-07-28T15:26:49.796Z,40.70
2022-07-28T15:29:20.351Z,41.10
2022-07-28T15:31:50.670Z,40.70
2022-07-28T15:34:24.460Z,40.20
2022-07-28T15:36:54.825Z,40.20
2022-07-28T15:39:26.257Z,39.90
2022-07-28T15:42:01.854Z,40.20
2022-07-28T15:44:31.512Z,40.20
2022-07-28T15:47:04.582Z,40.20
2022-07-28T15:49:33.855Z,40.20
2022-07-28T15:52:03.023Z,39.90
2022-07-28T15:54:35.251Z,40.70
2022-07-28T15:57:06.683Z,39.70
2022-07-28T15:59:50.276Z,39.60
2022-07-28T16:02:24.090Z,39.60
2022-07-28T16:04:54.721Z,39.50
2022-07-28T16:07:29.040Z,39.40
2022-07-28T16:10:07.532Z,39.50
2022-07-28T16:12:40.150Z,39.40
2022-07-28T16:15:10.833Z,39.40
2022-07-28T16:17:41.783Z,39.50
2022-07-28T16:20:12.773Z,39.30
2022-07-28T16:23:29.749Z,39.10
2022-07-28T16:26:00.691Z,39.20
2022-07-28T16:28:31.955Z,39.60
2022-07-28T16:31:01.668Z,39.60
2022-07-28T16:33:33.159Z,39.50
2022-07-28T16:36:03.733Z,39.50
2022-07-28T16:38:36.231Z,39.30
2022-07-28T16:41:09.404Z,39.10
2022-07-28T16:43:44.754Z,39.10
2022-07-28T16:46:25.279Z,39.20
2022-07-28T16:48:57.958Z,39.10
2022-07-28T16:51:35.038Z,39.20
2022-07-28T16:54:10.084Z,39.10
2022-07-28T17:01:29.941Z,39.30
2022-07-28T17:03:59.213Z,39.10
2022-07-28T17:06:28.974Z,39.30
2022-07-28T17:09:00.322Z,39.00
2022-07-28T17:11:31.469Z,39.10
2022-07-28T17:14:04.369Z,39.20
2022-07-28T17:16:42.810Z,39.10
2022-07-28T17:19:15.890Z,39.00
2022-07-28T17:21:48.873Z,39.10
2022-07-28T17:24:44.905Z,39.00
2022-07-28T17:27:44.647Z,38.90
2022-07-28T17:30:24.401Z,39.00
2022-07-28T17:33:23.982Z,39.00
2022-07-28T17:36:07.252Z,38.80
2022-07-28T17:38:39.025Z,39.00
2022-07-28T17:41:09.986Z,39.00
2022-07-28T17:43:49.245Z,39.30
2022-07-28T17:49:25.173Z,39.10
2022-07-28T17:52:02.943Z,39.10
2022-07-28T17:54:53.775Z,39.10
2022-07-28T17:57:28.676Z,39.20
2022-07-28T18:00:12.525Z,39.30
2022-07-28T18:02:42.327Z,39.30
2022-07-28T18:05:28.606Z,39.20
2022-07-28T18:08:11.899Z,39.00
2022-07-28T18:10:42.778Z,39.10
2022-07-28T18:13:13.921Z,39.20
2022-07-28T18:15:44.524Z,39.10
2022-07-28T18:18:19.187Z,39.00
2022-07-28T18:20:53.370Z,39.10
2022-07-28T18:23:30.505Z,39.10
2022-07-28T18:26:03.197Z,39.20
2022-07-28T18:28:42.612Z,39.90
2022-07-28T18:31:18.879Z,39.20
2022-07-28T18:33:50.080Z,39.30
2022-07-28T18:36:23.637Z,39.30
2022-07-28T18:38:57.132Z,39.30
2022-07-28T18:41:26.845Z,39.20
2022-07-28T18:44:05.408Z,39.30
2022-07-28T18:46:38.617Z,39.40
2022-07-28T18:49:15.123Z,39.40
2022-07-28T18:51:53.355Z,39.40
2022-07-28T18:54:27.609Z,39.40
2022-07-28T18:57:05.634Z,39.50
2022-07-28T18:59:51.755Z,39.50
2022-07-28T19:02:26.461Z,39.40
2022-07-28T19:04:55.665Z,39.40
2022-07-28T19:07:26.221Z,39.40
2022-07-28T19:09:55.289Z,39.40
2022-07-28T19:12:31.810Z,39.40
2022-07-28T19:15:09.923Z,39.50
2022-07-28T19:17:40.925Z,39.60
2022-07-28T19:20:13.327Z,39.60
2022-07-28T19:22:43.957Z,39.60
2022-07-28T19:25:13.234Z,39.60
2022-07-28T19:27:44.296Z,39.50
2022-07-28T19:30:15.557Z,39.60
2022-07-28T19:32:45.982Z,39.70
2022-07-28T19:35:15.382Z,39.60
2022-07-28T19:37:49.598Z,39.70
2022-07-28T19:40:21.364Z,39.70
2022-07-28T19:42:50.555Z,39.70
2022-07-28T19:45:54.917Z,39.70
2022-07-28T19:49:48.242Z,39.70
2022-07-28T19:54:07.125Z,39.80
2022-07-28T19:58:01.766Z,39.80
2022-07-28T20:01:59.673Z,39.80
2022-07-28T20:05:23.634Z,39.90
2022-07-28T20:12:57.958Z,39.90
2022-07-28T20:23:58.893Z,40.00
2022-07-28T20:27:09.631Z,40.00
2022-07-28T20:31:24.353Z,40.10
2022-07-28T20:42:52.798Z,40.00
2022-07-28T20:54:35.634Z,40.00
2022-07-28T20:58:06.190Z,40.00
2022-07-28T21:01:14.998Z,40.00
2022-07-28T21:04:29.045Z,40.00
2022-07-28T21:08:04.510Z,39.90
2022-07-28T21:10:31.289Z,40.00
2022-07-28T21:14:11.903Z,40.10
2022-07-28T21:20:55.469Z,40.00
2022-07-28T21:24:31.837Z,40.00
2022-07-28T21:28:38.955Z,40.10
2022-07-28T21:36:30.836Z,40.10
2022-07-28T21:40:06.588Z,40.10
2022-07-28T21:43:46.372Z,40.20
2022-07-28T21:47:28.437Z,40.10
2022-07-28T22:03:56.593Z,40.20
2022-07-28T22:08:02.393Z,40.10
2022-07-28T22:14:58.320Z,40.30
2022-07-28T22:19:12.905Z,40.30
2022-07-28T22:22:29.289Z,40.30
2022-07-28T22:29:38.471Z,40.50
2022-07-28T22:33:04.633Z,40.50
2022-07-28T22:55:05.990Z,40.40
2022-07-28T23:02:42.885Z,40.30
2022-07-28T23:06:03.686Z,40.60
2022-07-28T23:08:58.798Z,40.50
2022-07-28T23:11:59.528Z,40.50
2022-07-28T23:15:42.827Z,40.70
2022-07-28T23:22:52.225Z,40.60
2022-07-28T23:26:25.434Z,40.60
2022-07-28T23:30:44.452Z,40.50
2022-07-28T23:34:19.236Z,40.60
2022-07-28T23:37:49.456Z,40.70
2022-07-28T23:41:54.684Z,40.90
2022-07-28T23:45:36.593Z,40.80
2022-07-28T23:53:00.429Z,40.80
